Fortuneswell, United Kingdom
Current Conditions -  °F | °C
As of 2:50 AM on Thursday 18 Dec 2014 (Local Time) from EGHH Reporting Station
Broken Clouds Broken Clouds  
Wind Chill: 13°   Ceiling: 1300
Heat Index: 13°   Visibility: 6mi
Dew Point: 11°   Wind: 13mph
Humidity: 88%   Direction: 260°W
Pressure: 29.88"   Gusts: NA
Location:  50.56°N, 2.44°W
Report Text: EGHH 180250Z 26011KT 9999 BKN013 13/11 Q1012
Loading
Personal Weather Stations






























Interactive Weather Map New forecast layout! Learn more

10-Day Weather Forecast

Advertisements
Track Severe Weather on mobile